sensor_id;sensor_type;location;lat;lon;timestamp;P1;durP1;ratioP1;P2;durP2;ratioP2
23400;SDS011;11873;49.300;8.920;2023-02-28T00:01:55;2.40;;;2.20;;
23400;SDS011;11873;49.300;8.920;2023-02-28T00:06:55;2.63;;;2.03;;
23400;SDS011;11873;49.300;8.920;2023-02-28T00:11:55;2.67;;;2.47;;
23400;SDS011;11873;49.300;8.920;2023-02-28T00:16:55;2.53;;;2.10;;
23400;SDS011;11873;49.300;8.920;2023-02-28T00:21:56;2.57;;;2.17;;
23400;SDS011;11873;49.300;8.920;2023-02-28T00:26:56;2.40;;;2.20;;
23400;SDS011;11873;49.300;8.920;2023-02-28T00:31:56;3.57;;;2.37;;
23400;SDS011;11873;49.300;8.920;2023-02-28T00:36:56;2.00;;;1.90;;
23400;SDS011;11873;49.300;8.920;2023-02-28T00:41:56;2.57;;;2.37;;
23400;SDS011;11873;49.300;8.920;2023-02-28T00:46:57;3.60;;;2.27;;
23400;SDS011;11873;49.300;8.920;2023-02-28T00:51:57;2.97;;;2.60;;
23400;SDS011;11873;49.300;8.920;2023-02-28T00:56:57;2.93;;;2.43;;
23400;SDS011;11873;49.300;8.920;2023-02-28T01:01:57;2.97;;;2.70;;
23400;SDS011;11873;49.300;8.920;2023-02-28T01:06:57;2.83;;;2.53;;
23400;SDS011;11873;49.300;8.920;2023-02-28T01:11:58;2.43;;;2.23;;
23400;SDS011;11873;49.300;8.920;2023-02-28T01:16:58;2.65;;;2.45;;
23400;SDS011;11873;49.300;8.920;2023-02-28T01:22:02;3.50;;;2.60;;
23400;SDS011;11873;49.300;8.920;2023-02-28T01:27:02;4.20;;;2.57;;
23400;SDS011;11873;49.300;8.920;2023-02-28T01:32:02;3.20;;;2.57;;
23400;SDS011;11873;49.300;8.920;2023-02-28T01:37:02;2.70;;;2.50;;
23400;SDS011;11873;49.300;8.920;2023-02-28T01:42:03;3.37;;;2.50;;
23400;SDS011;11873;49.300;8.920;2023-02-28T01:47:03;3.83;;;2.47;;
23400;SDS011;11873;49.300;8.920;2023-02-28T01:52:03;2.33;;;2.13;;
23400;SDS011;11873;49.300;8.920;2023-02-28T01:57:04;3.10;;;2.47;;
23400;SDS011;11873;49.300;8.920;2023-02-28T02:02:06;3.87;;;2.70;;
23400;SDS011;11873;49.300;8.920;2023-02-28T02:07:06;2.97;;;2.27;;
23400;SDS011;11873;49.300;8.920;2023-02-28T02:12:15;2.63;;;2.43;;
23400;SDS011;11873;49.300;8.920;2023-02-28T02:17:28;3.00;;;2.70;;
23400;SDS011;11873;49.300;8.920;2023-02-28T02:27:39;3.03;;;2.67;;
23400;SDS011;11873;49.300;8.920;2023-02-28T02:32:47;4.50;;;2.67;;
23400;SDS011;11873;49.300;8.920;2023-02-28T02:37:53;2.90;;;2.70;;
23400;SDS011;11873;49.300;8.920;2023-02-28T02:48:01;3.70;;;2.57;;
23400;SDS011;11873;49.300;8.920;2023-02-28T02:53:02;2.93;;;2.73;;
23400;SDS011;11873;49.300;8.920;2023-02-28T02:58:04;3.50;;;2.67;;
23400;SDS011;11873;49.300;8.920;2023-02-28T03:03:06;3.27;;;2.97;;
23400;SDS011;11873;49.300;8.920;2023-02-28T03:08:08;3.57;;;2.87;;
23400;SDS011;11873;49.300;8.920;2023-02-28T03:18:31;3.03;;;2.73;;
23400;SDS011;11873;49.300;8.920;2023-02-28T03:23:35;4.87;;;2.70;;
23400;SDS011;11873;49.300;8.920;2023-02-28T03:28:42;4.00;;;3.20;;
23400;SDS011;11873;49.300;8.920;2023-02-28T03:33:44;3.23;;;2.80;;
23400;SDS011;11873;49.300;8.920;2023-02-28T03:38:51;3.33;;;2.97;;
23400;SDS011;11873;49.300;8.920;2023-02-28T03:43:56;2.80;;;2.60;;
23400;SDS011;11873;49.300;8.920;2023-02-28T03:49:01;3.77;;;3.27;;
23400;SDS011;11873;49.300;8.920;2023-02-28T03:54:07;3.50;;;3.17;;
23400;SDS011;11873;49.300;8.920;2023-02-28T04:04:08;3.50;;;3.20;;
23400;SDS011;11873;49.300;8.920;2023-02-28T04:09:10;3.80;;;3.47;;
23400;SDS011;11873;49.300;8.920;2023-02-28T04:14:11;3.87;;;3.50;;
23400;SDS011;11873;49.300;8.920;2023-02-28T04:19:11;3.50;;;3.17;;
23400;SDS011;11873;49.300;8.920;2023-02-28T04:24:13;3.23;;;2.93;;
23400;SDS011;11873;49.300;8.920;2023-02-28T04:29:17;2.90;;;2.70;;
23400;SDS011;11873;49.300;8.920;2023-02-28T04:34:17;3.20;;;2.90;;
23400;SDS011;11873;49.300;8.920;2023-02-28T04:39:18;3.73;;;3.33;;
23400;SDS011;11873;49.300;8.920;2023-02-28T04:44:18;4.20;;;3.80;;
23400;SDS011;11873;49.300;8.920;2023-02-28T04:49:18;3.03;;;2.73;;
23400;SDS011;11873;49.300;8.920;2023-02-28T04:54:18;4.10;;;3.30;;
23400;SDS011;11873;49.300;8.920;2023-02-28T04:59:18;3.50;;;3.20;;
23400;SDS011;11873;49.300;8.920;2023-02-28T05:04:18;3.50;;;2.50;;
23400;SDS011;11873;49.300;8.920;2023-02-28T05:09:19;3.43;;;3.00;;
23400;SDS011;11873;49.300;8.920;2023-02-28T05:14:19;2.60;;;2.40;;
23400;SDS011;11873;49.300;8.920;2023-02-28T05:19:19;4.00;;;3.60;;
23400;SDS011;11873;49.300;8.920;2023-02-28T05:24:19;4.43;;;4.03;;
23400;SDS011;11873;49.300;8.920;2023-02-28T05:29:20;5.18;;;3.33;;
23400;SDS011;11873;49.300;8.920;2023-02-28T05:34:20;4.40;;;3.50;;
23400;SDS011;11873;49.300;8.920;2023-02-28T05:39:20;4.20;;;3.80;;
23400;SDS011;11873;49.300;8.920;2023-02-28T05:44:20;3.67;;;3.37;;
23400;SDS011;11873;49.300;8.920;2023-02-28T05:49:20;5.07;;;4.00;;
23400;SDS011;11873;49.300;8.920;2023-02-28T05:54:21;5.83;;;3.80;;
23400;SDS011;11873;49.300;8.920;2023-02-28T05:59:21;3.30;;;3.10;;
23400;SDS011;11873;49.300;8.920;2023-02-28T06:04:21;3.60;;;3.30;;
23400;SDS011;11873;49.300;8.920;2023-02-28T06:09:21;3.50;;;3.20;;
23400;SDS011;11873;49.300;8.920;2023-02-28T06:14:21;5.67;;;3.67;;
23400;SDS011;11873;49.300;8.920;2023-02-28T06:19:22;5.23;;;3.33;;
23400;SDS011;11873;49.300;8.920;2023-02-28T06:24:23;3.53;;;3.23;;
23400;SDS011;11873;49.300;8.920;2023-02-28T06:29:23;3.87;;;3.53;;
23400;SDS011;11873;49.300;8.920;2023-02-28T06:34:23;3.53;;;3.20;;
23400;SDS011;11873;49.300;8.920;2023-02-28T06:39:24;3.40;;;3.10;;
23400;SDS011;11873;49.300;8.920;2023-02-28T06:44:24;3.80;;;3.37;;
23400;SDS011;11873;49.300;8.920;2023-02-28T06:49:24;3.60;;;2.97;;
23400;SDS011;11873;49.300;8.920;2023-02-28T06:54:24;3.13;;;2.60;;
23400;SDS011;11873;49.300;8.920;2023-02-28T06:59:24;3.70;;;3.00;;
23400;SDS011;11873;49.300;8.920;2023-02-28T07:04:25;4.30;;;3.90;;
23400;SDS011;11873;49.300;8.920;2023-02-28T07:09:25;8.20;;;5.43;;
23400;SDS011;11873;49.300;8.920;2023-02-28T07:14:25;4.35;;;3.92;;
23400;SDS011;11873;49.300;8.920;2023-02-28T07:19:25;8.20;;;5.43;;
23400;SDS011;11873;49.300;8.920;2023-02-28T07:24:25;4.47;;;3.60;;
23400;SDS011;11873;49.300;8.920;2023-02-28T07:29:26;5.47;;;4.97;;
23400;SDS011;11873;49.300;8.920;2023-02-28T07:34:26;4.83;;;4.30;;
23400;SDS011;11873;49.300;8.920;2023-02-28T07:39:26;4.73;;;3.87;;
23400;SDS011;11873;49.300;8.920;2023-02-28T07:44:26;3.50;;;2.90;;
23400;SDS011;11873;49.300;8.920;2023-02-28T07:49:26;3.83;;;3.53;;
23400;SDS011;11873;49.300;8.920;2023-02-28T07:54:27;2.33;;;2.13;;
23400;SDS011;11873;49.300;8.920;2023-02-28T07:59:27;4.57;;;3.67;;
23400;SDS011;11873;49.300;8.920;2023-02-28T08:04:27;3.30;;;3.00;;
23400;SDS011;11873;49.300;8.920;2023-02-28T08:09:27;3.93;;;3.30;;
23400;SDS011;11873;49.300;8.920;2023-02-28T08:14:27;4.97;;;3.17;;
23400;SDS011;11873;49.300;8.920;2023-02-28T08:19:28;3.60;;;3.30;;
23400;SDS011;11873;49.300;8.920;2023-02-28T08:24:28;2.23;;;2.10;;
23400;SDS011;11873;49.300;8.920;2023-02-28T08:29:28;2.80;;;2.43;;
23400;SDS011;11873;49.300;8.920;2023-02-28T08:34:29;1.13;;;1.13;;
23400;SDS011;11873;49.300;8.920;2023-02-28T08:39:29;4.07;;;3.63;;
23400;SDS011;11873;49.300;8.920;2023-02-28T08:44:29;4.57;;;3.60;;
23400;SDS011;11873;49.300;8.920;2023-02-28T08:49:29;4.07;;;3.73;;
23400;SDS011;11873;49.300;8.920;2023-02-28T08:54:29;8.13;;;4.30;;
23400;SDS011;11873;49.300;8.920;2023-02-28T08:59:29;0.70;;;0.70;;
23400;SDS011;11873;49.300;8.920;2023-02-28T09:04:30;3.33;;;3.00;;
23400;SDS011;11873;49.300;8.920;2023-02-28T09:09:30;3.40;;;3.03;;
23400;SDS011;11873;49.300;8.920;2023-02-28T09:14:30;4.53;;;4.13;;
23400;SDS011;11873;49.300;8.920;2023-02-28T09:19:30;3.40;;;2.67;;
23400;SDS011;11873;49.300;8.920;2023-02-28T09:24:30;1.20;;;1.20;;
23400;SDS011;11873;49.300;8.920;2023-02-28T09:29:31;2.20;;;1.93;;
23400;SDS011;11873;49.300;8.920;2023-02-28T09:34:32;1.73;;;1.60;;
23400;SDS011;11873;49.300;8.920;2023-02-28T09:39:32;4.03;;;3.43;;
23400;SDS011;11873;49.300;8.920;2023-02-28T09:44:42;2.83;;;2.57;;
23400;SDS011;11873;49.300;8.920;2023-02-28T09:49:45;0.87;;;0.87;;
23400;SDS011;11873;49.300;8.920;2023-02-28T09:54:46;2.33;;;2.13;;
23400;SDS011;11873;49.300;8.920;2023-02-28T10:04:47;4.73;;;4.03;;
23400;SDS011;11873;49.300;8.920;2023-02-28T10:09:52;4.47;;;4.07;;
23400;SDS011;11873;49.300;8.920;2023-02-28T10:14:53;3.90;;;3.57;;
23400;SDS011;11873;49.300;8.920;2023-02-28T10:19:56;4.27;;;3.53;;
23400;SDS011;11873;49.300;8.920;2023-02-28T10:24:59;4.80;;;4.33;;
23400;SDS011;11873;49.300;8.920;2023-02-28T10:30:00;5.17;;;4.67;;
23400;SDS011;11873;49.300;8.920;2023-02-28T10:40:00;6.17;;;4.43;;
23400;SDS011;11873;49.300;8.920;2023-02-28T10:45:11;6.27;;;5.70;;
23400;SDS011;11873;49.300;8.920;2023-02-28T10:55:30;4.50;;;4.10;;
23400;SDS011;11873;49.300;8.920;2023-02-28T11:00:34;5.73;;;5.23;;
23400;SDS011;11873;49.300;8.920;2023-02-28T11:05:35;6.27;;;5.67;;
23400;SDS011;11873;49.300;8.920;2023-02-28T11:10:36;5.03;;;4.57;;
23400;SDS011;11873;49.300;8.920;2023-02-28T11:15:36;3.00;;;2.80;;
23400;SDS011;11873;49.300;8.920;2023-02-28T11:20:37;5.50;;;5.00;;
23400;SDS011;11873;49.300;8.920;2023-02-28T11:25:38;4.17;;;3.73;;
23400;SDS011;11873;49.300;8.920;2023-02-28T11:30:39;4.43;;;4.03;;
23400;SDS011;11873;49.300;8.920;2023-02-28T11:35:40;2.90;;;2.70;;
23400;SDS011;11873;49.300;8.920;2023-02-28T11:40:46;6.20;;;5.43;;
23400;SDS011;11873;49.300;8.920;2023-02-28T11:51:19;9.43;;;6.67;;
23400;SDS011;11873;49.300;8.920;2023-02-28T11:56:30;6.23;;;5.57;;
23400;SDS011;11873;49.300;8.920;2023-02-28T12:11:48;1.90;;;1.27;;
23400;SDS011;11873;49.300;8.920;2023-02-28T12:17:54;3.57;;;3.20;;
23400;SDS011;11873;49.300;8.920;2023-02-28T12:22:27;4.27;;;3.80;;
23400;SDS011;11873;49.300;8.920;2023-02-28T12:27:31;1.33;;;1.17;;
23400;SDS011;11873;49.300;8.920;2023-02-28T12:32:37;3.53;;;3.23;;
23400;SDS011;11873;49.300;8.920;2023-02-28T12:42:56;4.97;;;3.97;;
23400;SDS011;11873;49.300;8.920;2023-02-28T12:47:58;0.93;;;0.70;;
23400;SDS011;11873;49.300;8.920;2023-02-28T13:13:28;6.10;;;4.57;;
23400;SDS011;11873;49.300;8.920;2023-02-28T13:18:30;7.50;;;5.97;;
23400;SDS011;11873;49.300;8.920;2023-02-28T13:29:10;7.50;;;6.70;;
23400;SDS011;11873;49.300;8.920;2023-02-28T13:34:04;7.17;;;6.47;;
23400;SDS011;11873;49.300;8.920;2023-02-28T13:44:24;7.43;;;5.67;;
23400;SDS011;11873;49.300;8.920;2023-02-28T13:59:46;9.43;;;6.10;;
23400;SDS011;11873;49.300;8.920;2023-02-28T14:10:29;6.20;;;5.60;;
23400;SDS011;11873;49.300;8.920;2023-02-28T14:20:31;7.13;;;5.87;;
23400;SDS011;11873;49.300;8.920;2023-02-28T14:40:55;7.37;;;6.57;;
23400;SDS011;11873;49.300;8.920;2023-02-28T14:45:57;7.43;;;6.37;;
23400;SDS011;11873;49.300;8.920;2023-02-28T14:50:58;6.47;;;5.80;;
23400;SDS011;11873;49.300;8.920;2023-02-28T14:55:59;7.27;;;6.17;;
23400;SDS011;11873;49.300;8.920;2023-02-28T15:01:00;5.20;;;4.70;;
23400;SDS011;11873;49.300;8.920;2023-02-28T15:06:02;6.03;;;5.07;;
23400;SDS011;11873;49.300;8.920;2023-02-28T15:11:21;5.83;;;4.87;;
23400;SDS011;11873;49.300;8.920;2023-02-28T15:16:39;7.47;;;6.50;;
23400;SDS011;11873;49.300;8.920;2023-02-28T15:21:42;7.37;;;4.60;;
23400;SDS011;11873;49.300;8.920;2023-02-28T15:26:45;8.37;;;6.67;;
23400;SDS011;11873;49.300;8.920;2023-02-28T15:31:48;2.97;;;2.77;;
23400;SDS011;11873;49.300;8.920;2023-02-28T15:36:48;7.20;;;6.50;;
23400;SDS011;11873;49.300;8.920;2023-02-28T15:41:49;6.93;;;5.60;;
23400;SDS011;11873;49.300;8.920;2023-02-28T15:51:56;7.07;;;6.20;;
23400;SDS011;11873;49.300;8.920;2023-02-28T15:56:58;8.07;;;6.73;;
23400;SDS011;11873;49.300;8.920;2023-02-28T16:02:11;7.70;;;7.00;;
23400;SDS011;11873;49.300;8.920;2023-02-28T16:07:12;5.47;;;4.93;;
23400;SDS011;11873;49.300;8.920;2023-02-28T16:12:13;7.07;;;5.57;;
23400;SDS011;11873;49.300;8.920;2023-02-28T16:17:16;7.67;;;5.90;;
23400;SDS011;11873;49.300;8.920;2023-02-28T16:22:19;8.87;;;6.60;;
23400;SDS011;11873;49.300;8.920;2023-02-28T16:27:20;7.13;;;6.43;;
23400;SDS011;11873;49.300;8.920;2023-02-28T16:32:21;6.67;;;5.97;;
23400;SDS011;11873;49.300;8.920;2023-02-28T16:37:21;7.50;;;6.33;;
23400;SDS011;11873;49.300;8.920;2023-02-28T16:42:22;6.97;;;5.70;;
23400;SDS011;11873;49.300;8.920;2023-02-28T16:47:23;7.47;;;6.70;;
23400;SDS011;11873;49.300;8.920;2023-02-28T16:52:23;7.00;;;6.20;;
23400;SDS011;11873;49.300;8.920;2023-02-28T16:57:23;8.80;;;6.43;;
23400;SDS011;11873;49.300;8.920;2023-02-28T17:02:24;7.60;;;6.80;;
23400;SDS011;11873;49.300;8.920;2023-02-28T17:07:24;7.43;;;6.40;;
23400;SDS011;11873;49.300;8.920;2023-02-28T17:12:24;8.67;;;6.77;;
23400;SDS011;11873;49.300;8.920;2023-02-28T17:17:24;8.30;;;6.43;;
23400;SDS011;11873;49.300;8.920;2023-02-28T17:22:25;9.03;;;8.13;;
23400;SDS011;11873;49.300;8.920;2023-02-28T17:27:25;9.00;;;6.57;;
23400;SDS011;11873;49.300;8.920;2023-02-28T17:32:25;8.23;;;6.50;;
23400;SDS011;11873;49.300;8.920;2023-02-28T17:37:25;7.43;;;6.63;;
23400;SDS011;11873;49.300;8.920;2023-02-28T17:42:25;7.33;;;6.63;;
23400;SDS011;11873;49.300;8.920;2023-02-28T17:47:25;7.53;;;6.77;;
23400;SDS011;11873;49.300;8.920;2023-02-28T17:52:26;8.80;;;6.73;;
23400;SDS011;11873;49.300;8.920;2023-02-28T17:57:26;6.97;;;6.27;;
23400;SDS011;11873;49.300;8.920;2023-02-28T18:02:26;7.70;;;6.90;;
23400;SDS011;11873;49.300;8.920;2023-02-28T18:07:26;7.40;;;6.67;;
23400;SDS011;11873;49.300;8.920;2023-02-28T18:12:26;7.23;;;6.20;;
23400;SDS011;11873;49.300;8.920;2023-02-28T18:17:27;8.27;;;6.73;;
23400;SDS011;11873;49.300;8.920;2023-02-28T18:22:27;9.17;;;7.17;;
23400;SDS011;11873;49.300;8.920;2023-02-28T18:27:27;8.27;;;6.87;;
23400;SDS011;11873;49.300;8.920;2023-02-28T18:32:28;10.00;;;7.93;;
23400;SDS011;11873;49.300;8.920;2023-02-28T18:37:28;12.93;;;10.47;;
23400;SDS011;11873;49.300;8.920;2023-02-28T18:42:28;9.50;;;7.70;;
23400;SDS011;11873;49.300;8.920;2023-02-28T18:47:28;7.93;;;6.53;;
23400;SDS011;11873;49.300;8.920;2023-02-28T18:52:28;8.37;;;7.17;;
23400;SDS011;11873;49.300;8.920;2023-02-28T18:57:29;9.00;;;7.40;;
23400;SDS011;11873;49.300;8.920;2023-02-28T19:02:29;8.80;;;8.00;;
23400;SDS011;11873;49.300;8.920;2023-02-28T19:07:29;9.10;;;8.30;;
23400;SDS011;11873;49.300;8.920;2023-02-28T19:12:32;8.27;;;7.47;;
23400;SDS011;11873;49.300;8.920;2023-02-28T19:17:32;9.53;;;7.90;;
23400;SDS011;11873;49.300;8.920;2023-02-28T19:22:33;9.87;;;8.13;;
23400;SDS011;11873;49.300;8.920;2023-02-28T19:27:33;12.77;;;9.30;;
23400;SDS011;11873;49.300;8.920;2023-02-28T19:32:33;14.43;;;10.07;;
23400;SDS011;11873;49.300;8.920;2023-02-28T19:37:35;23.43;;;13.80;;
23400;SDS011;11873;49.300;8.920;2023-02-28T19:42:36;16.90;;;12.90;;
23400;SDS011;11873;49.300;8.920;2023-02-28T19:47:36;13.90;;;10.67;;
23400;SDS011;11873;49.300;8.920;2023-02-28T19:52:36;13.60;;;10.27;;
23400;SDS011;11873;49.300;8.920;2023-02-28T19:57:36;12.10;;;9.43;;
23400;SDS011;11873;49.300;8.920;2023-02-28T20:02:36;10.00;;;8.77;;
23400;SDS011;11873;49.300;8.920;2023-02-28T20:07:37;11.07;;;9.77;;
23400;SDS011;11873;49.300;8.920;2023-02-28T20:12:37;12.53;;;11.23;;
23400;SDS011;11873;49.300;8.920;2023-02-28T20:17:37;10.77;;;9.67;;
23400;SDS011;11873;49.300;8.920;2023-02-28T20:22:37;12.17;;;10.43;;
23400;SDS011;11873;49.300;8.920;2023-02-28T20:27:38;13.17;;;10.50;;
23400;SDS011;11873;49.300;8.920;2023-02-28T20:32:38;12.40;;;10.20;;
23400;SDS011;11873;49.300;8.920;2023-02-28T20:37:38;11.67;;;10.27;;
23400;SDS011;11873;49.300;8.920;2023-02-28T20:42:38;12.17;;;9.53;;
23400;SDS011;11873;49.300;8.920;2023-02-28T20:47:39;10.20;;;8.63;;
23400;SDS011;11873;49.300;8.920;2023-02-28T20:52:39;10.97;;;9.23;;
23400;SDS011;11873;49.300;8.920;2023-02-28T20:57:39;11.47;;;9.23;;
23400;SDS011;11873;49.300;8.920;2023-02-28T21:02:39;9.43;;;7.57;;
23400;SDS011;11873;49.300;8.920;2023-02-28T21:07:39;9.97;;;6.70;;
23400;SDS011;11873;49.300;8.920;2023-02-28T21:12:39;9.20;;;7.23;;
23400;SDS011;11873;49.300;8.920;2023-02-28T21:17:40;8.53;;;6.37;;
23400;SDS011;11873;49.300;8.920;2023-02-28T21:22:40;9.00;;;7.20;;
23400;SDS011;11873;49.300;8.920;2023-02-28T21:27:40;8.00;;;6.97;;
23400;SDS011;11873;49.300;8.920;2023-02-28T21:32:40;7.97;;;7.03;;
23400;SDS011;11873;49.300;8.920;2023-02-28T21:37:41;8.47;;;6.63;;
23400;SDS011;11873;49.300;8.920;2023-02-28T21:42:41;7.73;;;6.70;;
23400;SDS011;11873;49.300;8.920;2023-02-28T21:47:41;8.17;;;7.17;;
23400;SDS011;11873;49.300;8.920;2023-02-28T21:52:41;8.43;;;7.00;;
23400;SDS011;11873;49.300;8.920;2023-02-28T21:57:41;7.50;;;6.63;;
23400;SDS011;11873;49.300;8.920;2023-02-28T22:02:41;7.17;;;6.40;;
23400;SDS011;11873;49.300;8.920;2023-02-28T22:07:43;6.70;;;6.10;;
23400;SDS011;11873;49.300;8.920;2023-02-28T22:12:43;7.17;;;6.37;;
23400;SDS011;11873;49.300;8.920;2023-02-28T22:17:43;7.53;;;6.60;;
23400;SDS011;11873;49.300;8.920;2023-02-28T22:22:43;7.10;;;6.40;;
23400;SDS011;11873;49.300;8.920;2023-02-28T22:27:43;7.63;;;6.73;;
23400;SDS011;11873;49.300;8.920;2023-02-28T22:32:44;7.93;;;6.03;;
23400;SDS011;11873;49.300;8.920;2023-02-28T22:37:46;10.23;;;7.30;;
23400;SDS011;11873;49.300;8.920;2023-02-28T22:42:46;8.43;;;6.13;;
23400;SDS011;11873;49.300;8.920;2023-02-28T22:47:48;10.30;;;7.13;;
23400;SDS011;11873;49.300;8.920;2023-02-28T22:52:48;8.50;;;7.30;;
23400;SDS011;11873;49.300;8.920;2023-02-28T22:57:48;10.03;;;6.93;;
23400;SDS011;11873;49.300;8.920;2023-02-28T23:02:48;7.37;;;6.57;;
23400;SDS011;11873;49.300;8.920;2023-02-28T23:07:49;8.50;;;6.93;;
23400;SDS011;11873;49.300;8.920;2023-02-28T23:12:49;9.20;;;7.43;;
23400;SDS011;11873;49.300;8.920;2023-02-28T23:17:49;7.47;;;6.60;;
23400;SDS011;11873;49.300;8.920;2023-02-28T23:22:49;7.73;;;6.83;;
23400;SDS011;11873;49.300;8.920;2023-02-28T23:27:49;8.50;;;7.23;;
23400;SDS011;11873;49.300;8.920;2023-02-28T23:32:50;9.33;;;7.90;;
23400;SDS011;11873;49.300;8.920;2023-02-28T23:37:50;8.07;;;7.27;;
23400;SDS011;11873;49.300;8.920;2023-02-28T23:42:50;9.63;;;7.53;;
23400;SDS011;11873;49.300;8.920;2023-02-28T23:47:50;7.27;;;6.53;;
23400;SDS011;11873;49.300;8.920;2023-02-28T23:52:51;8.33;;;7.20;;
23400;SDS011;11873;49.300;8.920;2023-02-28T23:57:51;8.37;;;7.50;;
